sensor_id;sensor_type;location;lat;lon;timestamp;P1;durP1;ratioP1;P2;durP2;ratioP2
40787;SDS011;26497;52.494;7.546;2022-10-04T00:02:19;32.45;;;13.88;;
40787;SDS011;26497;52.494;7.546;2022-10-04T00:04:53;27.75;;;11.50;;
40787;SDS011;26497;52.494;7.546;2022-10-04T00:07:28;30.58;;;12.55;;
40787;SDS011;26497;52.494;7.546;2022-10-04T00:10:00;36.55;;;14.77;;
40787;SDS011;26497;52.494;7.546;2022-10-04T00:12:43;32.70;;;14.27;;
40787;SDS011;26497;52.494;7.546;2022-10-04T00:15:17;23.35;;;13.75;;
40787;SDS011;26497;52.494;7.546;2022-10-04T00:18:04;31.67;;;12.45;;
40787;SDS011;26497;52.494;7.546;2022-10-04T00:20:56;26.58;;;12.60;;
40787;SDS011;26497;52.494;7.546;2022-10-04T00:23:40;24.23;;;12.15;;
40787;SDS011;26497;52.494;7.546;2022-10-04T00:26:13;28.83;;;13.60;;
40787;SDS011;26497;52.494;7.546;2022-10-04T00:29:26;27.63;;;13.20;;
40787;SDS011;26497;52.494;7.546;2022-10-04T00:34:57;25.98;;;12.88;;
40787;SDS011;26497;52.494;7.546;2022-10-04T00:37:25;39.83;;;14.40;;
40787;SDS011;26497;52.494;7.546;2022-10-04T00:40:14;28.65;;;12.57;;
40787;SDS011;26497;52.494;7.546;2022-10-04T00:42:45;24.10;;;11.32;;
40787;SDS011;26497;52.494;7.546;2022-10-04T00:45:27;27.33;;;13.02;;
40787;SDS011;26497;52.494;7.546;2022-10-04T00:48:10;28.30;;;13.13;;
40787;SDS011;26497;52.494;7.546;2022-10-04T00:51:03;26.50;;;13.70;;
40787;SDS011;26497;52.494;7.546;2022-10-04T00:53:39;29.98;;;14.13;;
40787;SDS011;26497;52.494;7.546;2022-10-04T00:56:17;32.63;;;14.57;;
40787;SDS011;26497;52.494;7.546;2022-10-04T00:59:11;30.48;;;14.13;;
40787;SDS011;26497;52.494;7.546;2022-10-04T01:01:55;33.47;;;14.07;;
40787;SDS011;26497;52.494;7.546;2022-10-04T01:04:29;30.73;;;13.82;;
40787;SDS011;26497;52.494;7.546;2022-10-04T01:07:06;26.45;;;14.05;;
40787;SDS011;26497;52.494;7.546;2022-10-04T01:09:35;24.33;;;12.95;;
40787;SDS011;26497;52.494;7.546;2022-10-04T01:12:13;33.55;;;12.65;;
40787;SDS011;26497;52.494;7.546;2022-10-04T01:14:53;38.95;;;13.57;;
40787;SDS011;26497;52.494;7.546;2022-10-04T01:17:31;23.75;;;12.75;;
40787;SDS011;26497;52.494;7.546;2022-10-04T01:19:58;31.67;;;13.40;;
40787;SDS011;26497;52.494;7.546;2022-10-04T01:22:35;31.52;;;14.35;;
40787;SDS011;26497;52.494;7.546;2022-10-04T01:25:06;36.35;;;15.25;;
40787;SDS011;26497;52.494;7.546;2022-10-04T01:27:35;40.13;;;14.48;;
40787;SDS011;26497;52.494;7.546;2022-10-04T01:30:07;37.20;;;15.65;;
40787;SDS011;26497;52.494;7.546;2022-10-04T01:32:38;30.48;;;14.70;;
40787;SDS011;26497;52.494;7.546;2022-10-04T01:35:06;40.88;;;15.48;;
40787;SDS011;26497;52.494;7.546;2022-10-04T01:37:37;36.80;;;15.55;;
40787;SDS011;26497;52.494;7.546;2022-10-04T01:40:05;32.58;;;14.52;;
40787;SDS011;26497;52.494;7.546;2022-10-04T01:42:35;41.15;;;14.63;;
40787;SDS011;26497;52.494;7.546;2022-10-04T01:45:11;37.67;;;14.52;;
40787;SDS011;26497;52.494;7.546;2022-10-04T01:47:47;42.17;;;15.38;;
40787;SDS011;26497;52.494;7.546;2022-10-04T01:50:21;28.15;;;13.90;;
40787;SDS011;26497;52.494;7.546;2022-10-04T01:52:57;27.02;;;15.27;;
40787;SDS011;26497;52.494;7.546;2022-10-04T01:55:35;35.20;;;16.23;;
40787;SDS011;26497;52.494;7.546;2022-10-04T01:58:06;34.08;;;16.25;;
40787;SDS011;26497;52.494;7.546;2022-10-04T02:00:39;42.60;;;16.95;;
40787;SDS011;26497;52.494;7.546;2022-10-04T02:03:13;29.67;;;15.35;;
40787;SDS011;26497;52.494;7.546;2022-10-04T02:05:47;31.33;;;15.98;;
40787;SDS011;26497;52.494;7.546;2022-10-04T02:08:23;39.45;;;16.08;;
40787;SDS011;26497;52.494;7.546;2022-10-04T02:10:54;43.70;;;16.83;;
40787;SDS011;26497;52.494;7.546;2022-10-04T02:13:22;33.88;;;14.63;;
40787;SDS011;26497;52.494;7.546;2022-10-04T02:18:21;37.85;;;14.70;;
40787;SDS011;26497;52.494;7.546;2022-10-04T02:20:50;25.90;;;13.02;;
40787;SDS011;26497;52.494;7.546;2022-10-04T02:23:21;22.77;;;12.40;;
40787;SDS011;26497;52.494;7.546;2022-10-04T02:25:49;32.85;;;14.90;;
40787;SDS011;26497;52.494;7.546;2022-10-04T02:28:17;27.45;;;14.23;;
40787;SDS011;26497;52.494;7.546;2022-10-04T02:30:45;31.85;;;13.85;;
40787;SDS011;26497;52.494;7.546;2022-10-04T02:33:29;41.67;;;14.70;;
40787;SDS011;26497;52.494;7.546;2022-10-04T02:35:56;30.70;;;14.65;;
40787;SDS011;26497;52.494;7.546;2022-10-04T02:38:27;32.35;;;15.77;;
40787;SDS011;26497;52.494;7.546;2022-10-04T02:41:01;43.72;;;15.80;;
40787;SDS011;26497;52.494;7.546;2022-10-04T02:43:37;34.55;;;16.13;;
40787;SDS011;26497;52.494;7.546;2022-10-04T02:46:12;39.03;;;15.57;;
40787;SDS011;26497;52.494;7.546;2022-10-04T02:48:44;33.20;;;14.80;;
40787;SDS011;26497;52.494;7.546;2022-10-04T02:51:16;36.00;;;16.02;;
40787;SDS011;26497;52.494;7.546;2022-10-04T02:53:52;36.10;;;14.68;;
40787;SDS011;26497;52.494;7.546;2022-10-04T02:56:28;38.33;;;16.65;;
40787;SDS011;26497;52.494;7.546;2022-10-04T02:58:59;43.50;;;17.55;;
40787;SDS011;26497;52.494;7.546;2022-10-04T03:01:35;46.22;;;19.77;;
40787;SDS011;26497;52.494;7.546;2022-10-04T03:04:10;48.72;;;20.95;;
40787;SDS011;26497;52.494;7.546;2022-10-04T03:06:39;42.60;;;17.73;;
40787;SDS011;26497;52.494;7.546;2022-10-04T03:09:11;46.15;;;19.27;;
40787;SDS011;26497;52.494;7.546;2022-10-04T03:11:39;56.88;;;20.52;;
40787;SDS011;26497;52.494;7.546;2022-10-04T03:14:08;46.38;;;18.58;;
40787;SDS011;26497;52.494;7.546;2022-10-04T03:16:40;53.08;;;20.67;;
40787;SDS011;26497;52.494;7.546;2022-10-04T03:19:10;44.93;;;18.73;;
40787;SDS011;26497;52.494;7.546;2022-10-04T03:21:41;51.57;;;19.70;;
40787;SDS011;26497;52.494;7.546;2022-10-04T03:24:14;53.03;;;18.30;;
40787;SDS011;26497;52.494;7.546;2022-10-04T03:26:46;43.00;;;16.10;;
40787;SDS011;26497;52.494;7.546;2022-10-04T03:29:17;34.15;;;16.58;;
40787;SDS011;26497;52.494;7.546;2022-10-04T03:31:47;30.73;;;16.60;;
40787;SDS011;26497;52.494;7.546;2022-10-04T03:34:18;46.67;;;19.05;;
40787;SDS011;26497;52.494;7.546;2022-10-04T03:36:50;48.15;;;19.98;;
40787;SDS011;26497;52.494;7.546;2022-10-04T03:39:25;43.70;;;17.50;;
40787;SDS011;26497;52.494;7.546;2022-10-04T03:41:57;37.88;;;15.88;;
40787;SDS011;26497;52.494;7.546;2022-10-04T03:44:28;39.83;;;16.60;;
40787;SDS011;26497;52.494;7.546;2022-10-04T03:46:56;39.88;;;16.95;;
40787;SDS011;26497;52.494;7.546;2022-10-04T03:49:27;51.47;;;16.40;;
40787;SDS011;26497;52.494;7.546;2022-10-04T03:51:59;41.67;;;16.08;;
40787;SDS011;26497;52.494;7.546;2022-10-04T03:54:29;37.85;;;14.90;;
40787;SDS011;26497;52.494;7.546;2022-10-04T03:56:57;32.72;;;15.55;;
40787;SDS011;26497;52.494;7.546;2022-10-04T03:59:26;38.40;;;16.90;;
40787;SDS011;26497;52.494;7.546;2022-10-04T04:02:04;39.33;;;15.20;;
40787;SDS011;26497;52.494;7.546;2022-10-04T04:04:40;40.47;;;16.63;;
40787;SDS011;26497;52.494;7.546;2022-10-04T04:07:16;38.50;;;15.48;;
40787;SDS011;26497;52.494;7.546;2022-10-04T04:09:51;37.38;;;16.38;;
40787;SDS011;26497;52.494;7.546;2022-10-04T04:12:26;40.70;;;15.63;;
40787;SDS011;26497;52.494;7.546;2022-10-04T04:15:03;49.58;;;17.90;;
40787;SDS011;26497;52.494;7.546;2022-10-04T04:17:36;44.28;;;19.15;;
40787;SDS011;26497;52.494;7.546;2022-10-04T04:20:11;36.90;;;17.67;;
40787;SDS011;26497;52.494;7.546;2022-10-04T04:22:56;37.25;;;18.42;;
40787;SDS011;26497;52.494;7.546;2022-10-04T04:25:30;53.80;;;17.83;;
40787;SDS011;26497;52.494;7.546;2022-10-04T04:28:01;55.65;;;18.75;;
40787;SDS011;26497;52.494;7.546;2022-10-04T04:30:38;41.85;;;18.75;;
40787;SDS011;26497;52.494;7.546;2022-10-04T04:33:14;49.10;;;17.60;;
40787;SDS011;26497;52.494;7.546;2022-10-04T04:35:52;43.40;;;17.80;;
40787;SDS011;26497;52.494;7.546;2022-10-04T04:38:22;48.88;;;18.40;;
40787;SDS011;26497;52.494;7.546;2022-10-04T04:40:52;46.70;;;15.65;;
40787;SDS011;26497;52.494;7.546;2022-10-04T04:43:23;36.22;;;15.55;;
40787;SDS011;26497;52.494;7.546;2022-10-04T04:48:22;36.47;;;15.73;;
40787;SDS011;26497;52.494;7.546;2022-10-04T04:50:51;37.20;;;15.07;;
40787;SDS011;26497;52.494;7.546;2022-10-04T04:53:22;36.30;;;15.60;;
40787;SDS011;26497;52.494;7.546;2022-10-04T04:55:55;48.47;;;17.05;;
40787;SDS011;26497;52.494;7.546;2022-10-04T04:58:25;35.97;;;18.08;;
40787;SDS011;26497;52.494;7.546;2022-10-04T05:00:57;43.92;;;17.52;;
40787;SDS011;26497;52.494;7.546;2022-10-04T05:03:27;42.47;;;18.93;;
40787;SDS011;26497;52.494;7.546;2022-10-04T05:05:55;54.38;;;19.27;;
40787;SDS011;26497;52.494;7.546;2022-10-04T05:08:25;42.65;;;17.73;;
40787;SDS011;26497;52.494;7.546;2022-10-04T05:10:59;45.47;;;18.05;;
40787;SDS011;26497;52.494;7.546;2022-10-04T05:13:31;37.25;;;17.70;;
40787;SDS011;26497;52.494;7.546;2022-10-04T05:16:04;41.28;;;16.60;;
40787;SDS011;26497;52.494;7.546;2022-10-04T05:18:37;52.60;;;18.63;;
40787;SDS011;26497;52.494;7.546;2022-10-04T05:21:05;35.47;;;16.52;;
40787;SDS011;26497;52.494;7.546;2022-10-04T05:23:37;31.98;;;14.55;;
40787;SDS011;26497;52.494;7.546;2022-10-04T05:26:06;36.85;;;16.20;;
40787;SDS011;26497;52.494;7.546;2022-10-04T05:28:36;47.45;;;17.05;;
40787;SDS011;26497;52.494;7.546;2022-10-04T05:31:16;41.00;;;16.75;;
40787;SDS011;26497;52.494;7.546;2022-10-04T05:33:57;43.85;;;16.70;;
40787;SDS011;26497;52.494;7.546;2022-10-04T05:36:30;53.80;;;18.48;;
40787;SDS011;26497;52.494;7.546;2022-10-04T05:39:14;35.03;;;15.30;;
40787;SDS011;26497;52.494;7.546;2022-10-04T05:41:55;28.50;;;15.43;;
40787;SDS011;26497;52.494;7.546;2022-10-04T05:44:27;35.17;;;14.70;;
40787;SDS011;26497;52.494;7.546;2022-10-04T05:47:00;28.73;;;13.45;;
40787;SDS011;26497;52.494;7.546;2022-10-04T05:49:32;33.97;;;15.20;;
40787;SDS011;26497;52.494;7.546;2022-10-04T05:52:12;29.15;;;15.07;;
40787;SDS011;26497;52.494;7.546;2022-10-04T05:54:42;33.40;;;14.93;;
40787;SDS011;26497;52.494;7.546;2022-10-04T05:57:13;26.13;;;13.63;;
40787;SDS011;26497;52.494;7.546;2022-10-04T06:00:12;32.28;;;14.98;;
40787;SDS011;26497;52.494;7.546;2022-10-04T06:06:04;41.08;;;16.80;;
40787;SDS011;26497;52.494;7.546;2022-10-04T06:08:42;46.22;;;16.83;;
40787;SDS011;26497;52.494;7.546;2022-10-04T06:11:23;32.72;;;15.27;;
40787;SDS011;26497;52.494;7.546;2022-10-04T06:14:33;45.08;;;18.40;;
40787;SDS011;26497;52.494;7.546;2022-10-04T06:20:22;36.38;;;17.73;;
40787;SDS011;26497;52.494;7.546;2022-10-04T06:23:15;58.13;;;20.35;;
40787;SDS011;26497;52.494;7.546;2022-10-04T06:25:46;55.60;;;20.38;;
40787;SDS011;26497;52.494;7.546;2022-10-04T06:28:17;47.20;;;19.77;;
40787;SDS011;26497;52.494;7.546;2022-10-04T06:30:55;51.10;;;19.02;;
40787;SDS011;26497;52.494;7.546;2022-10-04T06:34:20;31.10;;;16.10;;
40787;SDS011;26497;52.494;7.546;2022-10-04T06:37:42;35.40;;;16.50;;
40787;SDS011;26497;52.494;7.546;2022-10-04T06:44:02;33.43;;;16.70;;
40787;SDS011;26497;52.494;7.546;2022-10-04T06:47:16;29.58;;;15.82;;
40787;SDS011;26497;52.494;7.546;2022-10-04T06:50:03;28.23;;;13.10;;
40787;SDS011;26497;52.494;7.546;2022-10-04T06:52:50;23.80;;;12.15;;
40787;SDS011;26497;52.494;7.546;2022-10-04T06:55:47;26.35;;;11.05;;
40787;SDS011;26497;52.494;7.546;2022-10-04T07:01:48;23.23;;;9.05;;
40787;SDS011;26497;52.494;7.546;2022-10-04T07:04:24;12.27;;;8.23;;
40787;SDS011;26497;52.494;7.546;2022-10-04T07:07:11;14.35;;;7.57;;
40787;SDS011;26497;52.494;7.546;2022-10-04T07:09:49;18.25;;;8.30;;
40787;SDS011;26497;52.494;7.546;2022-10-04T07:12:21;16.60;;;8.13;;
40787;SDS011;26497;52.494;7.546;2022-10-04T07:14:50;14.07;;;9.20;;
40787;SDS011;26497;52.494;7.546;2022-10-04T07:17:23;24.60;;;9.02;;
40787;SDS011;26497;52.494;7.546;2022-10-04T07:19:56;15.65;;;8.32;;
40787;SDS011;26497;52.494;7.546;2022-10-04T07:22:27;17.63;;;9.27;;
40787;SDS011;26497;52.494;7.546;2022-10-04T07:25:02;10.95;;;8.70;;
40787;SDS011;26497;52.494;7.546;2022-10-04T07:27:45;21.95;;;8.95;;
40787;SDS011;26497;52.494;7.546;2022-10-04T07:30:39;18.25;;;9.90;;
40787;SDS011;26497;52.494;7.546;2022-10-04T07:33:12;16.58;;;8.68;;
40787;SDS011;26497;52.494;7.546;2022-10-04T07:35:49;16.95;;;8.82;;
40787;SDS011;26497;52.494;7.546;2022-10-04T07:38:22;23.95;;;9.48;;
40787;SDS011;26497;52.494;7.546;2022-10-04T07:41:00;20.38;;;8.65;;
40787;SDS011;26497;52.494;7.546;2022-10-04T07:43:34;23.85;;;9.10;;
40787;SDS011;26497;52.494;7.546;2022-10-04T07:46:13;17.10;;;8.27;;
40787;SDS011;26497;52.494;7.546;2022-10-04T07:48:48;13.30;;;8.65;;
40787;SDS011;26497;52.494;7.546;2022-10-04T07:51:22;16.05;;;9.27;;
40787;SDS011;26497;52.494;7.546;2022-10-04T07:53:57;17.83;;;8.85;;
40787;SDS011;26497;52.494;7.546;2022-10-04T07:56:38;17.42;;;8.18;;
40787;SDS011;26497;52.494;7.546;2022-10-04T07:59:15;23.63;;;9.43;;
40787;SDS011;26497;52.494;7.546;2022-10-04T08:02:07;19.00;;;8.45;;
40787;SDS011;26497;52.494;7.546;2022-10-04T08:04:48;15.02;;;7.90;;
40787;SDS011;26497;52.494;7.546;2022-10-04T08:07:34;23.15;;;10.57;;
40787;SDS011;26497;52.494;7.546;2022-10-04T08:10:18;17.55;;;8.15;;
40787;SDS011;26497;52.494;7.546;2022-10-04T08:12:57;16.58;;;8.45;;
40787;SDS011;26497;52.494;7.546;2022-10-04T08:15:35;14.85;;;7.35;;
40787;SDS011;26497;52.494;7.546;2022-10-04T08:18:07;16.20;;;6.68;;
40787;SDS011;26497;52.494;7.546;2022-10-04T08:20:55;20.08;;;5.75;;
40787;SDS011;26497;52.494;7.546;2022-10-04T08:26:21;18.95;;;5.85;;
40787;SDS011;26497;52.494;7.546;2022-10-04T08:29:08;11.05;;;4.60;;
40787;SDS011;26497;52.494;7.546;2022-10-04T08:32:17;12.88;;;4.85;;
40787;SDS011;26497;52.494;7.546;2022-10-04T08:38:04;10.38;;;4.47;;
40787;SDS011;26497;52.494;7.546;2022-10-04T08:41:18;11.00;;;4.35;;
40787;SDS011;26497;52.494;7.546;2022-10-04T08:44:40;10.75;;;4.50;;
40787;SDS011;26497;52.494;7.546;2022-10-04T08:48:03;13.00;;;5.07;;
40787;SDS011;26497;52.494;7.546;2022-10-04T08:54:20;15.45;;;4.93;;
40787;SDS011;26497;52.494;7.546;2022-10-04T08:57:40;8.95;;;4.35;;
40787;SDS011;26497;52.494;7.546;2022-10-04T09:00:34;10.30;;;4.82;;
40787;SDS011;26497;52.494;7.546;2022-10-04T09:06:44;19.20;;;4.50;;
40787;SDS011;26497;52.494;7.546;2022-10-04T09:09:32;4.97;;;3.10;;
40787;SDS011;26497;52.494;7.546;2022-10-04T09:12:51;5.32;;;4.20;;
40787;SDS011;26497;52.494;7.546;2022-10-04T09:15:40;6.55;;;4.18;;
40787;SDS011;26497;52.494;7.546;2022-10-04T09:18:19;10.48;;;3.55;;
40787;SDS011;26497;52.494;7.546;2022-10-04T09:20:55;9.40;;;3.28;;
40787;SDS011;26497;52.494;7.546;2022-10-04T09:23:40;14.68;;;4.35;;
40787;SDS011;26497;52.494;7.546;2022-10-04T09:26:46;7.70;;;3.50;;
40787;SDS011;26497;52.494;7.546;2022-10-04T09:29:29;8.48;;;3.17;;
40787;SDS011;26497;52.494;7.546;2022-10-04T09:32:20;6.28;;;3.20;;
40787;SDS011;26497;52.494;7.546;2022-10-04T09:35:21;9.35;;;2.50;;
40787;SDS011;26497;52.494;7.546;2022-10-04T09:38:33;6.07;;;3.22;;
40787;SDS011;26497;52.494;7.546;2022-10-04T09:41:33;10.43;;;3.50;;
40787;SDS011;26497;52.494;7.546;2022-10-04T09:44:25;9.48;;;3.42;;
40787;SDS011;26497;52.494;7.546;2022-10-04T09:47:30;5.78;;;2.97;;
40787;SDS011;26497;52.494;7.546;2022-10-04T09:50:26;7.28;;;3.25;;
40787;SDS011;26497;52.494;7.546;2022-10-04T09:53:27;5.97;;;2.58;;
40787;SDS011;26497;52.494;7.546;2022-10-04T10:02:39;7.75;;;2.90;;
40787;SDS011;26497;52.494;7.546;2022-10-04T10:05:55;6.45;;;3.00;;
40787;SDS011;26497;52.494;7.546;2022-10-04T10:08:47;10.07;;;3.45;;
40787;SDS011;26497;52.494;7.546;2022-10-04T10:11:33;5.28;;;3.25;;
40787;SDS011;26497;52.494;7.546;2022-10-04T10:17:37;6.20;;;2.53;;
40787;SDS011;26497;52.494;7.546;2022-10-04T10:20:18;8.48;;;2.75;;
40787;SDS011;26497;52.494;7.546;2022-10-04T10:26:32;9.93;;;2.47;;
40787;SDS011;26497;52.494;7.546;2022-10-04T10:29:30;6.35;;;2.38;;
40787;SDS011;26497;52.494;7.546;2022-10-04T10:32:18;7.55;;;2.72;;
40787;SDS011;26497;52.494;7.546;2022-10-04T10:35:14;8.25;;;3.15;;
40787;SDS011;26497;52.494;7.546;2022-10-04T10:40:49;4.83;;;2.10;;
40787;SDS011;26497;52.494;7.546;2022-10-04T10:43:44;3.38;;;2.17;;
40787;SDS011;26497;52.494;7.546;2022-10-04T10:46:33;12.50;;;2.53;;
40787;SDS011;26497;52.494;7.546;2022-10-04T10:49:23;3.85;;;2.15;;
40787;SDS011;26497;52.494;7.546;2022-10-04T10:55:44;3.50;;;1.30;;
40787;SDS011;26497;52.494;7.546;2022-10-04T11:02:26;3.53;;;1.48;;
40787;SDS011;26497;52.494;7.546;2022-10-04T11:05:26;7.85;;;2.05;;
40787;SDS011;26497;52.494;7.546;2022-10-04T11:08:18;5.32;;;1.48;;
40787;SDS011;26497;52.494;7.546;2022-10-04T11:11:20;4.30;;;1.30;;
40787;SDS011;26497;52.494;7.546;2022-10-04T11:14:41;2.88;;;1.35;;
40787;SDS011;26497;52.494;7.546;2022-10-04T11:17:22;7.20;;;2.05;;
40787;SDS011;26497;52.494;7.546;2022-10-04T11:20:38;5.85;;;1.20;;
40787;SDS011;26497;52.494;7.546;2022-10-04T11:27:31;4.07;;;1.75;;
40787;SDS011;26497;52.494;7.546;2022-10-04T11:30:13;3.40;;;1.45;;
40787;SDS011;26497;52.494;7.546;2022-10-04T11:33:07;7.85;;;2.03;;
40787;SDS011;26497;52.494;7.546;2022-10-04T11:39:15;3.05;;;1.08;;
40787;SDS011;26497;52.494;7.546;2022-10-04T11:42:04;2.88;;;1.13;;
40787;SDS011;26497;52.494;7.546;2022-10-04T11:48:04;3.53;;;1.83;;
40787;SDS011;26497;52.494;7.546;2022-10-04T11:50:50;3.60;;;1.30;;
40787;SDS011;26497;52.494;7.546;2022-10-04T11:57:01;5.88;;;1.42;;
40787;SDS011;26497;52.494;7.546;2022-10-04T11:59:43;4.57;;;1.48;;
40787;SDS011;26497;52.494;7.546;2022-10-04T12:02:28;3.75;;;1.80;;
40787;SDS011;26497;52.494;7.546;2022-10-04T12:05:48;4.07;;;1.40;;
40787;SDS011;26497;52.494;7.546;2022-10-04T12:08:41;4.10;;;1.60;;
40787;SDS011;26497;52.494;7.546;2022-10-04T12:14:57;3.85;;;1.38;;
40787;SDS011;26497;52.494;7.546;2022-10-04T12:17:54;4.15;;;1.17;;
40787;SDS011;26497;52.494;7.546;2022-10-04T12:21:08;3.78;;;1.98;;
40787;SDS011;26497;52.494;7.546;2022-10-04T12:23:59;5.93;;;1.58;;
40787;SDS011;26497;52.494;7.546;2022-10-04T12:30:10;5.43;;;1.83;;
40787;SDS011;26497;52.494;7.546;2022-10-04T12:33:02;4.05;;;1.65;;
40787;SDS011;26497;52.494;7.546;2022-10-04T12:36:00;7.75;;;2.20;;
40787;SDS011;26497;52.494;7.546;2022-10-04T12:38:56;6.35;;;2.30;;
40787;SDS011;26497;52.494;7.546;2022-10-04T12:41:53;7.00;;;1.65;;
40787;SDS011;26497;52.494;7.546;2022-10-04T12:44:37;6.60;;;1.85;;
40787;SDS011;26497;52.494;7.546;2022-10-04T12:47:31;4.72;;;2.03;;
40787;SDS011;26497;52.494;7.546;2022-10-04T12:50:28;7.00;;;2.28;;
40787;SDS011;26497;52.494;7.546;2022-10-04T12:53:12;11.82;;;2.28;;
40787;SDS011;26497;52.494;7.546;2022-10-04T12:58:59;5.32;;;3.03;;
40787;SDS011;26497;52.494;7.546;2022-10-04T13:01:41;6.13;;;2.45;;
40787;SDS011;26497;52.494;7.546;2022-10-04T13:04:23;5.20;;;1.63;;
40787;SDS011;26497;52.494;7.546;2022-10-04T13:07:05;11.50;;;2.15;;
40787;SDS011;26497;52.494;7.546;2022-10-04T13:09:58;6.60;;;1.58;;
40787;SDS011;26497;52.494;7.546;2022-10-04T13:12:55;5.00;;;2.20;;
40787;SDS011;26497;52.494;7.546;2022-10-04T13:15:49;7.57;;;2.50;;
40787;SDS011;26497;52.494;7.546;2022-10-04T13:18:24;6.00;;;1.60;;
40787;SDS011;26497;52.494;7.546;2022-10-04T13:21:00;3.42;;;1.83;;
40787;SDS011;26497;52.494;7.546;2022-10-04T13:23:44;4.65;;;1.65;;
40787;SDS011;26497;52.494;7.546;2022-10-04T13:26:28;5.43;;;2.78;;
40787;SDS011;26497;52.494;7.546;2022-10-04T13:29:04;11.98;;;2.30;;
40787;SDS011;26497;52.494;7.546;2022-10-04T13:31:44;6.90;;;1.80;;
40787;SDS011;26497;52.494;7.546;2022-10-04T13:34:21;6.45;;;2.25;;
40787;SDS011;26497;52.494;7.546;2022-10-04T13:37:03;4.93;;;1.98;;
40787;SDS011;26497;52.494;7.546;2022-10-04T13:40:16;5.20;;;1.80;;
40787;SDS011;26497;52.494;7.546;2022-10-04T13:43:28;5.53;;;1.58;;
40787;SDS011;26497;52.494;7.546;2022-10-04T13:46:28;5.32;;;2.33;;
40787;SDS011;26497;52.494;7.546;2022-10-04T13:49:12;4.82;;;1.92;;
40787;SDS011;26497;52.494;7.546;2022-10-04T13:51:58;3.92;;;1.50;;
40787;SDS011;26497;52.494;7.546;2022-10-04T13:54:59;6.53;;;2.00;;
40787;SDS011;26497;52.494;7.546;2022-10-04T13:58:05;4.60;;;1.90;;
40787;SDS011;26497;52.494;7.546;2022-10-04T14:00:54;10.35;;;2.30;;
40787;SDS011;26497;52.494;7.546;2022-10-04T14:03:50;11.80;;;2.25;;
40787;SDS011;26497;52.494;7.546;2022-10-04T14:09:50;6.80;;;1.77;;
40787;SDS011;26497;52.494;7.546;2022-10-04T14:12:35;8.07;;;2.05;;
40787;SDS011;26497;52.494;7.546;2022-10-04T14:22:14;12.27;;;2.20;;
40787;SDS011;26497;52.494;7.546;2022-10-04T14:25:40;7.03;;;2.65;;
40787;SDS011;26497;52.494;7.546;2022-10-04T14:35:03;6.20;;;2.80;;
40787;SDS011;26497;52.494;7.546;2022-10-04T14:38:04;7.45;;;2.70;;
40787;SDS011;26497;52.494;7.546;2022-10-04T14:50:52;7.00;;;2.35;;
40787;SDS011;26497;52.494;7.546;2022-10-04T14:53:51;3.92;;;2.60;;
40787;SDS011;26497;52.494;7.546;2022-10-04T14:56:38;6.53;;;2.15;;
40787;SDS011;26497;52.494;7.546;2022-10-04T15:05:58;6.50;;;2.30;;
40787;SDS011;26497;52.494;7.546;2022-10-04T15:08:56;4.85;;;2.38;;
40787;SDS011;26497;52.494;7.546;2022-10-04T15:11:52;6.10;;;2.30;;
40787;SDS011;26497;52.494;7.546;2022-10-04T15:14:27;8.52;;;3.08;;
40787;SDS011;26497;52.494;7.546;2022-10-04T15:17:04;9.05;;;2.35;;
40787;SDS011;26497;52.494;7.546;2022-10-04T15:25:34;4.32;;;2.33;;
40787;SDS011;26497;52.494;7.546;2022-10-04T15:28:07;9.10;;;2.33;;
40787;SDS011;26497;52.494;7.546;2022-10-04T15:30:58;10.00;;;3.38;;
40787;SDS011;26497;52.494;7.546;2022-10-04T15:33:34;10.30;;;4.38;;
40787;SDS011;26497;52.494;7.546;2022-10-04T15:36:15;9.07;;;2.70;;
40787;SDS011;26497;52.494;7.546;2022-10-04T15:39:09;5.47;;;2.25;;
40787;SDS011;26497;52.494;7.546;2022-10-04T15:42:23;7.50;;;2.50;;
40787;SDS011;26497;52.494;7.546;2022-10-04T15:45:00;6.47;;;2.53;;
40787;SDS011;26497;52.494;7.546;2022-10-04T15:48:11;9.63;;;2.85;;
40787;SDS011;26497;52.494;7.546;2022-10-04T15:50:59;11.77;;;3.80;;
40787;SDS011;26497;52.494;7.546;2022-10-04T15:53:41;7.75;;;3.05;;
40787;SDS011;26497;52.494;7.546;2022-10-04T15:56:40;7.38;;;3.55;;
40787;SDS011;26497;52.494;7.546;2022-10-04T15:59:28;7.93;;;2.38;;
40787;SDS011;26497;52.494;7.546;2022-10-04T16:05:31;10.63;;;2.85;;
40787;SDS011;26497;52.494;7.546;2022-10-04T16:08:17;6.35;;;3.13;;
40787;SDS011;26497;52.494;7.546;2022-10-04T16:13:59;6.47;;;3.40;;
40787;SDS011;26497;52.494;7.546;2022-10-04T16:16:54;13.40;;;3.00;;
40787;SDS011;26497;52.494;7.546;2022-10-04T16:19:44;14.85;;;3.40;;
40787;SDS011;26497;52.494;7.546;2022-10-04T16:22:29;10.15;;;3.67;;
40787;SDS011;26497;52.494;7.546;2022-10-04T16:24:58;8.32;;;3.65;;
40787;SDS011;26497;52.494;7.546;2022-10-04T16:27:59;7.60;;;3.85;;
40787;SDS011;26497;52.494;7.546;2022-10-04T16:30:36;15.32;;;3.85;;
40787;SDS011;26497;52.494;7.546;2022-10-04T16:33:19;12.15;;;3.92;;
40787;SDS011;26497;52.494;7.546;2022-10-04T16:36:03;11.30;;;4.28;;
40787;SDS011;26497;52.494;7.546;2022-10-04T16:38:42;12.38;;;4.35;;
40787;SDS011;26497;52.494;7.546;2022-10-04T16:41:34;12.52;;;4.70;;
40787;SDS011;26497;52.494;7.546;2022-10-04T16:44:11;11.75;;;4.10;;
40787;SDS011;26497;52.494;7.546;2022-10-04T16:47:00;8.30;;;4.47;;
40787;SDS011;26497;52.494;7.546;2022-10-04T16:53:25;9.32;;;4.70;;
40787;SDS011;26497;52.494;7.546;2022-10-04T16:56:08;21.60;;;4.85;;
40787;SDS011;26497;52.494;7.546;2022-10-04T16:58:42;14.35;;;6.18;;
40787;SDS011;26497;52.494;7.546;2022-10-04T17:01:41;16.30;;;4.85;;
40787;SDS011;26497;52.494;7.546;2022-10-04T17:05:01;10.20;;;5.57;;
40787;SDS011;26497;52.494;7.546;2022-10-04T17:11:06;13.60;;;4.68;;
40787;SDS011;26497;52.494;7.546;2022-10-04T17:13:58;11.50;;;5.50;;
40787;SDS011;26497;52.494;7.546;2022-10-04T17:16:34;9.25;;;4.22;;
40787;SDS011;26497;52.494;7.546;2022-10-04T17:19:12;9.90;;;4.93;;
40787;SDS011;26497;52.494;7.546;2022-10-04T17:21:54;15.68;;;5.40;;
40787;SDS011;26497;52.494;7.546;2022-10-04T17:24:47;13.85;;;5.53;;
40787;SDS011;26497;52.494;7.546;2022-10-04T17:27:25;8.50;;;4.47;;
40787;SDS011;26497;52.494;7.546;2022-10-04T17:30:12;12.65;;;4.88;;
40787;SDS011;26497;52.494;7.546;2022-10-04T17:32:54;12.52;;;4.93;;
40787;SDS011;26497;52.494;7.546;2022-10-04T17:35:57;21.77;;;8.55;;
40787;SDS011;26497;52.494;7.546;2022-10-04T17:38:40;20.80;;;8.88;;
40787;SDS011;26497;52.494;7.546;2022-10-04T17:41:17;10.57;;;7.30;;
40787;SDS011;26497;52.494;7.546;2022-10-04T17:44:12;22.55;;;7.32;;
40787;SDS011;26497;52.494;7.546;2022-10-04T17:47:00;12.75;;;6.85;;
40787;SDS011;26497;52.494;7.546;2022-10-04T17:49:37;11.38;;;6.15;;
40787;SDS011;26497;52.494;7.546;2022-10-04T17:52:41;14.15;;;6.55;;
40787;SDS011;26497;52.494;7.546;2022-10-04T17:55:32;13.55;;;6.88;;
40787;SDS011;26497;52.494;7.546;2022-10-04T17:58:12;12.30;;;6.43;;
40787;SDS011;26497;52.494;7.546;2022-10-04T18:00:46;14.05;;;6.65;;
40787;SDS011;26497;52.494;7.546;2022-10-04T18:03:24;13.32;;;6.03;;
40787;SDS011;26497;52.494;7.546;2022-10-04T18:06:02;14.10;;;7.30;;
40787;SDS011;26497;52.494;7.546;2022-10-04T18:08:45;12.40;;;6.25;;
40787;SDS011;26497;52.494;7.546;2022-10-04T18:11:23;12.73;;;7.00;;
40787;SDS011;26497;52.494;7.546;2022-10-04T18:13:59;21.23;;;9.55;;
40787;SDS011;26497;52.494;7.546;2022-10-04T18:19:56;22.38;;;9.50;;
40787;SDS011;26497;52.494;7.546;2022-10-04T18:22:45;33.25;;;14.55;;
40787;SDS011;26497;52.494;7.546;2022-10-04T18:25:15;41.15;;;12.50;;